PILOTS ONLINE: 634    ATC ONLINE: 154

CYVR

Vancouver International Airport

Location

IATA YVR
City Vancouver
Country  Canada
Latitude 49° 11' 38" N
Longitude 123° 11' 2" W
Elevation 14 ft
Type Large Airport

Map

Weather

METAR
2014/10/24 20:00
CYVR 242000Z 07009KT 20SM FEW035 OVC050 13/07 A3005 RMK SF1SC7 SLP176
TAF
2014/10/24 18:42
TAF CYVR 241740Z 2418/2524 09008KT P6SM SCT020 BKN040 
      TEMPO 2418/2422 BKN020 
     FM242200 31006KT P6SM SCT030 BKN220 
     FM250500 VRB03KT P6SM SCT080 OVC140 
     FM250900 VRB03KT P6SM -RA OVC060 
     FM251400 VRB03KT P6SM -RA SCT008 OVC030 
      TEMPO 2514/2521 2SM -RA BR BKN008 OVC012 
     FM252100 07008KT P6SM -RA BKN020 OVC040 
      RMK NXT FCST BY 242100Z

Runways

08L/26R 9940 ft / 200 ft
08R/26L 11500 ft / 200 ft
12/30 7300 ft / 200 ft
XX/26A 3500 ft / 75 ft

Outbound flights

Callsign Flying to Pilot ATD/STD ETA Aircraft
JZA067  CYYJ - Victoria
Canada
Itamar Reuven
1023405
20:17 20:36 DH8D

Inbound flights

Callsign Flying from Pilot ATD ETA Aircraft
JZA440  CYMM - Fort McMurray
Canada
Carsten Labus
921899
18:24 20:24 CRJ2
BSA156  CYUL - Montréal
Canada
Michel Bolduc
816216
17:05 22:20 A320
ACA855  EGLL - London
United Kingdom
Gabriel Silva Pereira
1162916
14:49 00:05 B77W